sensor_id;sensor_type;location;lat;lon;timestamp;P1;durP1;ratioP1;P2;durP2;ratioP2
23252;SDS011;11795;47.054;15.408;2024-01-11T00:01:59;31.2;;;20.0;;
23252;SDS011;11795;47.054;15.408;2024-01-11T00:03:59;31.2;;;20.0;;
23252;SDS011;11795;47.054;15.408;2024-01-11T00:06:00;34.9;;;21.6;;
23252;SDS011;11795;47.054;15.408;2024-01-11T00:07:59;34.9;;;21.6;;
23252;SDS011;11795;47.054;15.408;2024-01-11T00:10:00;34.9;;;21.6;;
23252;SDS011;11795;47.054;15.408;2024-01-11T00:11:59;30.8;;;19.7;;
23252;SDS011;11795;47.054;15.408;2024-01-11T00:13:59;30.8;;;19.7;;
23252;SDS011;11795;47.054;15.408;2024-01-11T00:15:59;32.1;;;19.5;;
23252;SDS011;11795;47.054;15.408;2024-01-11T00:17:59;32.1;;;19.5;;
23252;SDS011;11795;47.054;15.408;2024-01-11T00:19:59;32.1;;;19.5;;
23252;SDS011;11795;47.054;15.408;2024-01-11T00:21:59;27.9;;;17.8;;
23252;SDS011;11795;47.054;15.408;2024-01-11T00:23:59;27.9;;;17.8;;
23252;SDS011;11795;47.054;15.408;2024-01-11T00:25:59;29.3;;;19.2;;
23252;SDS011;11795;47.054;15.408;2024-01-11T00:27:59;29.3;;;19.2;;
23252;SDS011;11795;47.054;15.408;2024-01-11T00:29:59;29.3;;;19.2;;
23252;SDS011;11795;47.054;15.408;2024-01-11T00:31:59;32.0;;;19.0;;
23252;SDS011;11795;47.054;15.408;2024-01-11T00:33:59;32.0;;;19.0;;
23252;SDS011;11795;47.054;15.408;2024-01-11T00:35:59;29.3;;;18.6;;
23252;SDS011;11795;47.054;15.408;2024-01-11T00:37:59;29.3;;;18.6;;
23252;SDS011;11795;47.054;15.408;2024-01-11T00:39:59;29.3;;;18.6;;
23252;SDS011;11795;47.054;15.408;2024-01-11T00:41:59;28.0;;;18.2;;
23252;SDS011;11795;47.054;15.408;2024-01-11T00:43:59;28.0;;;18.2;;
23252;SDS011;11795;47.054;15.408;2024-01-11T00:45:59;33.3;;;20.1;;
23252;SDS011;11795;47.054;15.408;2024-01-11T00:47:59;33.3;;;20.1;;
23252;SDS011;11795;47.054;15.408;2024-01-11T00:49:59;33.3;;;20.1;;
23252;SDS011;11795;47.054;15.408;2024-01-11T00:51:59;29.1;;;18.6;;
23252;SDS011;11795;47.054;15.408;2024-01-11T00:53:59;29.1;;;18.6;;
23252;SDS011;11795;47.054;15.408;2024-01-11T00:55:59;29.1;;;18.7;;
23252;SDS011;11795;47.054;15.408;2024-01-11T00:57:59;29.1;;;18.7;;
23252;SDS011;11795;47.054;15.408;2024-01-11T00:59:59;29.1;;;18.7;;
23252;SDS011;11795;47.054;15.408;2024-01-11T01:01:59;24.6;;;16.7;;
23252;SDS011;11795;47.054;15.408;2024-01-11T01:03:59;24.6;;;16.7;;
23252;SDS011;11795;47.054;15.408;2024-01-11T01:05:59;27.6;;;17.6;;
23252;SDS011;11795;47.054;15.408;2024-01-11T01:07:59;27.6;;;17.6;;
23252;SDS011;11795;47.054;15.408;2024-01-11T01:09:59;27.6;;;17.6;;
23252;SDS011;11795;47.054;15.408;2024-01-11T01:11:59;33.7;;;20.5;;
23252;SDS011;11795;47.054;15.408;2024-01-11T01:13:59;33.7;;;20.5;;
23252;SDS011;11795;47.054;15.408;2024-01-11T01:15:59;31.2;;;19.7;;
23252;SDS011;11795;47.054;15.408;2024-01-11T01:17:59;31.2;;;19.7;;
23252;SDS011;11795;47.054;15.408;2024-01-11T01:20:00;31.2;;;19.7;;
23252;SDS011;11795;47.054;15.408;2024-01-11T01:21:59;30.5;;;18.9;;
23252;SDS011;11795;47.054;15.408;2024-01-11T01:23:59;30.5;;;18.9;;
23252;SDS011;11795;47.054;15.408;2024-01-11T01:25:59;27.4;;;17.5;;
23252;SDS011;11795;47.054;15.408;2024-01-11T01:28:00;27.4;;;17.5;;
23252;SDS011;11795;47.054;15.408;2024-01-11T01:29:59;27.4;;;17.5;;
23252;SDS011;11795;47.054;15.408;2024-01-11T01:31:59;26.7;;;17.0;;
23252;SDS011;11795;47.054;15.408;2024-01-11T01:33:59;26.7;;;17.0;;
23252;SDS011;11795;47.054;15.408;2024-01-11T01:35:59;25.6;;;16.8;;
23252;SDS011;11795;47.054;15.408;2024-01-11T01:37:59;25.6;;;16.8;;
23252;SDS011;11795;47.054;15.408;2024-01-11T01:39:59;25.6;;;16.8;;
23252;SDS011;11795;47.054;15.408;2024-01-11T01:41:59;30.3;;;18.6;;
23252;SDS011;11795;47.054;15.408;2024-01-11T01:43:59;30.3;;;18.6;;
23252;SDS011;11795;47.054;15.408;2024-01-11T01:45:59;32.3;;;20.2;;
23252;SDS011;11795;47.054;15.408;2024-01-11T01:47:59;32.3;;;20.2;;
23252;SDS011;11795;47.054;15.408;2024-01-11T01:49:59;32.3;;;20.2;;
23252;SDS011;11795;47.054;15.408;2024-01-11T01:51:59;30.1;;;18.8;;
23252;SDS011;11795;47.054;15.408;2024-01-11T01:53:59;30.1;;;18.8;;
23252;SDS011;11795;47.054;15.408;2024-01-11T01:55:59;47.5;;;27.9;;
23252;SDS011;11795;47.054;15.408;2024-01-11T01:57:59;47.5;;;27.9;;
23252;SDS011;11795;47.054;15.408;2024-01-11T01:59:59;47.5;;;27.9;;
23252;SDS011;11795;47.054;15.408;2024-01-11T02:01:59;42.6;;;26.2;;
23252;SDS011;11795;47.054;15.408;2024-01-11T02:03:59;42.6;;;26.2;;
23252;SDS011;11795;47.054;15.408;2024-01-11T02:05:59;31.7;;;19.6;;
23252;SDS011;11795;47.054;15.408;2024-01-11T02:07:59;31.7;;;19.6;;
23252;SDS011;11795;47.054;15.408;2024-01-11T02:09:59;31.7;;;19.6;;
23252;SDS011;11795;47.054;15.408;2024-01-11T02:11:59;33.4;;;19.9;;
23252;SDS011;11795;47.054;15.408;2024-01-11T02:13:59;33.4;;;19.9;;
23252;SDS011;11795;47.054;15.408;2024-01-11T02:15:59;27.0;;;17.7;;
23252;SDS011;11795;47.054;15.408;2024-01-11T02:17:59;27.0;;;17.7;;
23252;SDS011;11795;47.054;15.408;2024-01-11T02:19:59;27.0;;;17.7;;
23252;SDS011;11795;47.054;15.408;2024-01-11T02:21:59;32.3;;;20.8;;
23252;SDS011;11795;47.054;15.408;2024-01-11T02:24:06;32.3;;;20.8;;
23252;SDS011;11795;47.054;15.408;2024-01-11T02:25:59;35.3;;;21.5;;
23252;SDS011;11795;47.054;15.408;2024-01-11T02:27:59;35.3;;;21.5;;
23252;SDS011;11795;47.054;15.408;2024-01-11T02:29:59;35.3;;;21.5;;
23252;SDS011;11795;47.054;15.408;2024-01-11T02:32:00;34.3;;;22.5;;
23252;SDS011;11795;47.054;15.408;2024-01-11T02:33:59;34.3;;;22.5;;
23252;SDS011;11795;47.054;15.408;2024-01-11T02:35:59;34.7;;;22.0;;
23252;SDS011;11795;47.054;15.408;2024-01-11T02:37:59;34.7;;;22.0;;
23252;SDS011;11795;47.054;15.408;2024-01-11T02:39:59;34.7;;;22.0;;
23252;SDS011;11795;47.054;15.408;2024-01-11T02:41:59;34.0;;;21.7;;
23252;SDS011;11795;47.054;15.408;2024-01-11T02:43:59;34.0;;;21.7;;
23252;SDS011;11795;47.054;15.408;2024-01-11T02:45:59;38.6;;;22.9;;
23252;SDS011;11795;47.054;15.408;2024-01-11T02:47:59;38.6;;;22.9;;
23252;SDS011;11795;47.054;15.408;2024-01-11T02:49:59;38.6;;;22.9;;
23252;SDS011;11795;47.054;15.408;2024-01-11T02:51:59;37.4;;;22.9;;
23252;SDS011;11795;47.054;15.408;2024-01-11T02:53:59;37.4;;;22.9;;
23252;SDS011;11795;47.054;15.408;2024-01-11T02:55:59;35.0;;;21.3;;
23252;SDS011;11795;47.054;15.408;2024-01-11T02:57:59;35.0;;;21.3;;
23252;SDS011;11795;47.054;15.408;2024-01-11T02:59:59;35.0;;;21.3;;
23252;SDS011;11795;47.054;15.408;2024-01-11T03:01:59;31.9;;;19.5;;
23252;SDS011;11795;47.054;15.408;2024-01-11T03:03:59;31.9;;;19.5;;
23252;SDS011;11795;47.054;15.408;2024-01-11T03:05:59;37.5;;;21.5;;
23252;SDS011;11795;47.054;15.408;2024-01-11T03:07:59;37.5;;;21.5;;
23252;SDS011;11795;47.054;15.408;2024-01-11T03:09:59;37.5;;;21.5;;
23252;SDS011;11795;47.054;15.408;2024-01-11T03:11:59;44.4;;;25.6;;
23252;SDS011;11795;47.054;15.408;2024-01-11T03:13:59;44.4;;;25.6;;
23252;SDS011;11795;47.054;15.408;2024-01-11T03:15:59;46.2;;;27.5;;
23252;SDS011;11795;47.054;15.408;2024-01-11T03:17:59;46.2;;;27.5;;
23252;SDS011;11795;47.054;15.408;2024-01-11T03:19:59;46.2;;;27.5;;
23252;SDS011;11795;47.054;15.408;2024-01-11T03:22:03;42.7;;;25.0;;
23252;SDS011;11795;47.054;15.408;2024-01-11T03:23:59;42.7;;;25.0;;
23252;SDS011;11795;47.054;15.408;2024-01-11T03:25:59;41.0;;;24.6;;
23252;SDS011;11795;47.054;15.408;2024-01-11T03:27:59;41.0;;;24.6;;
23252;SDS011;11795;47.054;15.408;2024-01-11T03:29:59;41.0;;;24.6;;
23252;SDS011;11795;47.054;15.408;2024-01-11T03:31:59;37.6;;;22.8;;
23252;SDS011;11795;47.054;15.408;2024-01-11T03:33:59;37.6;;;22.8;;
23252;SDS011;11795;47.054;15.408;2024-01-11T03:35:59;35.2;;;22.1;;
23252;SDS011;11795;47.054;15.408;2024-01-11T03:37:59;35.2;;;22.1;;
23252;SDS011;11795;47.054;15.408;2024-01-11T03:39:59;35.2;;;22.1;;
23252;SDS011;11795;47.054;15.408;2024-01-11T03:41:59;37.1;;;23.8;;
23252;SDS011;11795;47.054;15.408;2024-01-11T03:43:59;37.1;;;23.8;;
23252;SDS011;11795;47.054;15.408;2024-01-11T03:45:59;37.5;;;23.7;;
23252;SDS011;11795;47.054;15.408;2024-01-11T03:47:59;37.5;;;23.7;;
23252;SDS011;11795;47.054;15.408;2024-01-11T03:49:59;37.5;;;23.7;;
23252;SDS011;11795;47.054;15.408;2024-01-11T03:51:59;39.4;;;24.9;;
23252;SDS011;11795;47.054;15.408;2024-01-11T03:53:59;39.4;;;24.9;;
23252;SDS011;11795;47.054;15.408;2024-01-11T03:55:59;37.6;;;22.9;;
23252;SDS011;11795;47.054;15.408;2024-01-11T03:57:59;37.6;;;22.9;;
23252;SDS011;11795;47.054;15.408;2024-01-11T03:59:59;40.3;;;25.8;;
23252;SDS011;11795;47.054;15.408;2024-01-11T04:01:59;40.3;;;25.8;;
23252;SDS011;11795;47.054;15.408;2024-01-11T04:03:59;40.3;;;25.8;;
23252;SDS011;11795;47.054;15.408;2024-01-11T04:05:59;40.1;;;25.9;;
23252;SDS011;11795;47.054;15.408;2024-01-11T04:07:59;40.1;;;25.9;;
23252;SDS011;11795;47.054;15.408;2024-01-11T04:10:00;34.7;;;22.8;;
23252;SDS011;11795;47.054;15.408;2024-01-11T04:11:59;34.7;;;22.8;;
23252;SDS011;11795;47.054;15.408;2024-01-11T04:13:59;34.7;;;22.8;;
23252;SDS011;11795;47.054;15.408;2024-01-11T04:16:03;38.1;;;24.2;;
23252;SDS011;11795;47.054;15.408;2024-01-11T04:17:59;38.1;;;24.2;;
23252;SDS011;11795;47.054;15.408;2024-01-11T04:19:59;41.9;;;25.9;;
23252;SDS011;11795;47.054;15.408;2024-01-11T04:21:59;41.9;;;25.9;;
23252;SDS011;11795;47.054;15.408;2024-01-11T04:23:59;41.9;;;25.9;;
23252;SDS011;11795;47.054;15.408;2024-01-11T04:25:59;38.2;;;25.4;;
23252;SDS011;11795;47.054;15.408;2024-01-11T04:27:59;38.2;;;25.4;;
23252;SDS011;11795;47.054;15.408;2024-01-11T04:29:59;36.6;;;22.8;;
23252;SDS011;11795;47.054;15.408;2024-01-11T04:31:59;36.6;;;22.8;;
23252;SDS011;11795;47.054;15.408;2024-01-11T04:33:59;36.6;;;22.8;;
23252;SDS011;11795;47.054;15.408;2024-01-11T04:35:59;37.4;;;22.9;;
23252;SDS011;11795;47.054;15.408;2024-01-11T04:37:59;37.4;;;22.9;;
23252;SDS011;11795;47.054;15.408;2024-01-11T04:40:00;34.3;;;21.9;;
23252;SDS011;11795;47.054;15.408;2024-01-11T04:42:00;34.3;;;21.9;;
23252;SDS011;11795;47.054;15.408;2024-01-11T04:43:59;34.3;;;21.9;;
23252;SDS011;11795;47.054;15.408;2024-01-11T04:45:59;35.9;;;21.9;;
23252;SDS011;11795;47.054;15.408;2024-01-11T04:47:59;35.9;;;21.9;;
23252;SDS011;11795;47.054;15.408;2024-01-11T04:49:59;31.8;;;21.5;;
23252;SDS011;11795;47.054;15.408;2024-01-11T04:51:59;31.8;;;21.5;;
23252;SDS011;11795;47.054;15.408;2024-01-11T04:53:59;31.8;;;21.5;;
23252;SDS011;11795;47.054;15.408;2024-01-11T04:55:59;36.6;;;23.7;;
23252;SDS011;11795;47.054;15.408;2024-01-11T04:57:59;36.6;;;23.7;;
23252;SDS011;11795;47.054;15.408;2024-01-11T04:59:59;33.9;;;22.2;;
23252;SDS011;11795;47.054;15.408;2024-01-11T05:01:59;33.9;;;22.2;;
23252;SDS011;11795;47.054;15.408;2024-01-11T05:03:59;33.9;;;22.2;;
23252;SDS011;11795;47.054;15.408;2024-01-11T05:05:59;32.7;;;22.2;;
23252;SDS011;11795;47.054;15.408;2024-01-11T05:07:59;32.7;;;22.2;;
23252;SDS011;11795;47.054;15.408;2024-01-11T05:09:59;37.4;;;22.2;;
23252;SDS011;11795;47.054;15.408;2024-01-11T05:11:59;37.4;;;22.2;;
23252;SDS011;11795;47.054;15.408;2024-01-11T05:13:59;37.4;;;22.2;;
23252;SDS011;11795;47.054;15.408;2024-01-11T05:15:59;36.7;;;22.8;;
23252;SDS011;11795;47.054;15.408;2024-01-11T05:17:59;36.7;;;22.8;;
23252;SDS011;11795;47.054;15.408;2024-01-11T05:19:59;31.6;;;20.7;;
23252;SDS011;11795;47.054;15.408;2024-01-11T05:21:59;31.6;;;20.7;;
23252;SDS011;11795;47.054;15.408;2024-01-11T05:23:59;31.6;;;20.7;;
23252;SDS011;11795;47.054;15.408;2024-01-11T05:25:59;34.5;;;21.5;;
23252;SDS011;11795;47.054;15.408;2024-01-11T05:27:59;34.5;;;21.5;;
23252;SDS011;11795;47.054;15.408;2024-01-11T05:29:59;37.2;;;22.3;;
23252;SDS011;11795;47.054;15.408;2024-01-11T05:31:59;37.2;;;22.3;;
23252;SDS011;11795;47.054;15.408;2024-01-11T05:33:59;37.2;;;22.3;;
23252;SDS011;11795;47.054;15.408;2024-01-11T05:35:59;41.2;;;25.3;;
23252;SDS011;11795;47.054;15.408;2024-01-11T05:37:59;41.2;;;25.3;;
23252;SDS011;11795;47.054;15.408;2024-01-11T05:39:59;40.9;;;25.2;;
23252;SDS011;11795;47.054;15.408;2024-01-11T05:41:59;40.9;;;25.2;;
23252;SDS011;11795;47.054;15.408;2024-01-11T05:43:59;40.9;;;25.2;;
23252;SDS011;11795;47.054;15.408;2024-01-11T05:45:59;37.7;;;23.4;;
23252;SDS011;11795;47.054;15.408;2024-01-11T05:47:59;37.7;;;23.4;;
23252;SDS011;11795;47.054;15.408;2024-01-11T05:49:59;39.4;;;24.8;;
23252;SDS011;11795;47.054;15.408;2024-01-11T05:51:59;39.4;;;24.8;;
23252;SDS011;11795;47.054;15.408;2024-01-11T05:53:59;39.4;;;24.8;;
23252;SDS011;11795;47.054;15.408;2024-01-11T05:55:59;39.0;;;22.9;;
23252;SDS011;11795;47.054;15.408;2024-01-11T05:57:59;39.0;;;22.9;;
23252;SDS011;11795;47.054;15.408;2024-01-11T05:59:59;35.0;;;21.6;;
23252;SDS011;11795;47.054;15.408;2024-01-11T06:02:00;35.0;;;21.6;;
23252;SDS011;11795;47.054;15.408;2024-01-11T06:03:59;35.0;;;21.6;;
23252;SDS011;11795;47.054;15.408;2024-01-11T06:06:00;40.5;;;23.7;;
23252;SDS011;11795;47.054;15.408;2024-01-11T06:07:59;40.5;;;23.7;;
23252;SDS011;11795;47.054;15.408;2024-01-11T06:10:01;42.3;;;25.6;;
23252;SDS011;11795;47.054;15.408;2024-01-11T06:11:59;42.3;;;25.6;;
23252;SDS011;11795;47.054;15.408;2024-01-11T06:14:00;42.3;;;25.6;;
23252;SDS011;11795;47.054;15.408;2024-01-11T06:15:59;55.0;;;31.7;;
23252;SDS011;11795;47.054;15.408;2024-01-11T06:17:59;55.0;;;31.7;;
23252;SDS011;11795;47.054;15.408;2024-01-11T06:19:59;43.3;;;27.2;;
23252;SDS011;11795;47.054;15.408;2024-01-11T06:21:59;43.3;;;27.2;;
23252;SDS011;11795;47.054;15.408;2024-01-11T06:23:59;43.3;;;27.2;;
23252;SDS011;11795;47.054;15.408;2024-01-11T06:25:59;42.2;;;25.0;;
23252;SDS011;11795;47.054;15.408;2024-01-11T06:28:00;42.2;;;25.0;;
23252;SDS011;11795;47.054;15.408;2024-01-11T06:29:59;38.9;;;24.3;;
23252;SDS011;11795;47.054;15.408;2024-01-11T06:31:59;38.9;;;24.3;;
23252;SDS011;11795;47.054;15.408;2024-01-11T06:33:59;38.9;;;24.3;;
23252;SDS011;11795;47.054;15.408;2024-01-11T06:35:59;38.5;;;23.0;;
23252;SDS011;11795;47.054;15.408;2024-01-11T06:37:59;38.5;;;23.0;;
23252;SDS011;11795;47.054;15.408;2024-01-11T06:39:59;40.1;;;24.9;;
23252;SDS011;11795;47.054;15.408;2024-01-11T06:41:59;40.1;;;24.9;;
23252;SDS011;11795;47.054;15.408;2024-01-11T06:43:59;40.1;;;24.9;;
23252;SDS011;11795;47.054;15.408;2024-01-11T06:46:02;37.0;;;24.0;;
23252;SDS011;11795;47.054;15.408;2024-01-11T06:47:59;37.0;;;24.0;;
23252;SDS011;11795;47.054;15.408;2024-01-11T06:49:59;35.4;;;22.9;;
23252;SDS011;11795;47.054;15.408;2024-01-11T06:51:59;35.4;;;22.9;;
23252;SDS011;11795;47.054;15.408;2024-01-11T06:54:00;35.4;;;22.9;;
23252;SDS011;11795;47.054;15.408;2024-01-11T06:55:59;37.3;;;24.1;;
23252;SDS011;11795;47.054;15.408;2024-01-11T06:57:59;37.3;;;24.1;;
23252;SDS011;11795;47.054;15.408;2024-01-11T06:59:59;36.4;;;24.2;;
23252;SDS011;11795;47.054;15.408;2024-01-11T07:01:59;36.4;;;24.2;;
23252;SDS011;11795;47.054;15.408;2024-01-11T07:03:59;36.4;;;24.2;;
23252;SDS011;11795;47.054;15.408;2024-01-11T07:05:59;41.2;;;23.6;;
23252;SDS011;11795;47.054;15.408;2024-01-11T07:07:59;41.2;;;23.6;;
23252;SDS011;11795;47.054;15.408;2024-01-11T07:09:59;36.0;;;22.8;;
23252;SDS011;11795;47.054;15.408;2024-01-11T07:11:59;36.0;;;22.8;;
23252;SDS011;11795;47.054;15.408;2024-01-11T07:13:59;36.0;;;22.8;;
23252;SDS011;11795;47.054;15.408;2024-01-11T07:15:59;37.5;;;23.7;;
23252;SDS011;11795;47.054;15.408;2024-01-11T07:17:59;37.5;;;23.7;;
23252;SDS011;11795;47.054;15.408;2024-01-11T07:19:59;41.9;;;25.4;;
23252;SDS011;11795;47.054;15.408;2024-01-11T07:21:59;41.9;;;25.4;;
23252;SDS011;11795;47.054;15.408;2024-01-11T07:23:59;41.9;;;25.4;;
23252;SDS011;11795;47.054;15.408;2024-01-11T07:25:59;39.7;;;25.4;;
23252;SDS011;11795;47.054;15.408;2024-01-11T07:27:59;39.7;;;25.4;;
23252;SDS011;11795;47.054;15.408;2024-01-11T07:29:59;37.7;;;24.8;;
23252;SDS011;11795;47.054;15.408;2024-01-11T07:31:59;37.7;;;24.8;;
23252;SDS011;11795;47.054;15.408;2024-01-11T07:33:59;37.7;;;24.8;;
23252;SDS011;11795;47.054;15.408;2024-01-11T07:35:59;38.6;;;25.1;;
23252;SDS011;11795;47.054;15.408;2024-01-11T07:37:59;38.6;;;25.1;;
23252;SDS011;11795;47.054;15.408;2024-01-11T07:39:59;37.8;;;24.2;;
23252;SDS011;11795;47.054;15.408;2024-01-11T07:41:59;37.8;;;24.2;;
23252;SDS011;11795;47.054;15.408;2024-01-11T07:44:00;37.8;;;24.2;;
23252;SDS011;11795;47.054;15.408;2024-01-11T07:45:59;38.2;;;24.0;;
23252;SDS011;11795;47.054;15.408;2024-01-11T07:47:59;38.2;;;24.0;;
23252;SDS011;11795;47.054;15.408;2024-01-11T07:49:59;50.7;;;31.4;;
23252;SDS011;11795;47.054;15.408;2024-01-11T07:51:59;50.7;;;31.4;;
23252;SDS011;11795;47.054;15.408;2024-01-11T07:53:59;50.7;;;31.4;;
23252;SDS011;11795;47.054;15.408;2024-01-11T07:55:59;65.7;;;40.2;;
23252;SDS011;11795;47.054;15.408;2024-01-11T07:57:59;65.7;;;40.2;;
23252;SDS011;11795;47.054;15.408;2024-01-11T07:59:59;47.9;;;27.9;;
23252;SDS011;11795;47.054;15.408;2024-01-11T08:02:00;47.9;;;27.9;;
23252;SDS011;11795;47.054;15.408;2024-01-11T08:04:01;47.9;;;27.9;;
23252;SDS011;11795;47.054;15.408;2024-01-11T08:06:00;43.9;;;25.6;;
23252;SDS011;11795;47.054;15.408;2024-01-11T08:08:02;43.9;;;25.6;;
23252;SDS011;11795;47.054;15.408;2024-01-11T08:09:59;38.4;;;24.2;;
23252;SDS011;11795;47.054;15.408;2024-01-11T08:11:59;38.4;;;24.2;;
23252;SDS011;11795;47.054;15.408;2024-01-11T08:13:59;38.4;;;24.2;;
23252;SDS011;11795;47.054;15.408;2024-01-11T08:15:59;36.9;;;23.5;;
23252;SDS011;11795;47.054;15.408;2024-01-11T08:18:00;36.9;;;23.5;;
23252;SDS011;11795;47.054;15.408;2024-01-11T08:19:59;34.1;;;22.4;;
23252;SDS011;11795;47.054;15.408;2024-01-11T08:21:59;34.1;;;22.4;;
23252;SDS011;11795;47.054;15.408;2024-01-11T08:23:59;34.1;;;22.4;;
23252;SDS011;11795;47.054;15.408;2024-01-11T08:25:59;40.9;;;26.5;;
23252;SDS011;11795;47.054;15.408;2024-01-11T08:27:59;40.9;;;26.5;;
23252;SDS011;11795;47.054;15.408;2024-01-11T08:30:00;40.6;;;25.7;;
23252;SDS011;11795;47.054;15.408;2024-01-11T08:31:59;40.6;;;25.7;;
23252;SDS011;11795;47.054;15.408;2024-01-11T08:33:59;40.6;;;25.7;;
23252;SDS011;11795;47.054;15.408;2024-01-11T08:35:59;37.0;;;24.7;;
23252;SDS011;11795;47.054;15.408;2024-01-11T08:37:59;37.0;;;24.7;;
23252;SDS011;11795;47.054;15.408;2024-01-11T08:39:59;37.4;;;23.3;;
23252;SDS011;11795;47.054;15.408;2024-01-11T08:41:59;37.4;;;23.3;;
23252;SDS011;11795;47.054;15.408;2024-01-11T08:43:59;37.4;;;23.3;;
23252;SDS011;11795;47.054;15.408;2024-01-11T08:45:59;38.5;;;24.5;;
23252;SDS011;11795;47.054;15.408;2024-01-11T08:47:59;38.5;;;24.5;;
23252;SDS011;11795;47.054;15.408;2024-01-11T08:49:59;36.7;;;23.5;;
23252;SDS011;11795;47.054;15.408;2024-01-11T08:51:59;36.7;;;23.5;;
23252;SDS011;11795;47.054;15.408;2024-01-11T08:54:00;36.7;;;23.5;;
23252;SDS011;11795;47.054;15.408;2024-01-11T08:55:59;37.7;;;23.9;;
23252;SDS011;11795;47.054;15.408;2024-01-11T08:57:59;37.7;;;23.9;;
23252;SDS011;11795;47.054;15.408;2024-01-11T08:59:59;40.2;;;26.1;;
23252;SDS011;11795;47.054;15.408;2024-01-11T09:01:59;40.2;;;26.1;;
23252;SDS011;11795;47.054;15.408;2024-01-11T09:03:59;40.2;;;26.1;;
23252;SDS011;11795;47.054;15.408;2024-01-11T09:05:59;38.9;;;26.0;;
23252;SDS011;11795;47.054;15.408;2024-01-11T09:07:59;38.9;;;26.0;;
23252;SDS011;11795;47.054;15.408;2024-01-11T09:09:59;39.8;;;24.7;;
23252;SDS011;11795;47.054;15.408;2024-01-11T09:11:59;39.8;;;24.7;;
23252;SDS011;11795;47.054;15.408;2024-01-11T09:13:59;39.8;;;24.7;;
23252;SDS011;11795;47.054;15.408;2024-01-11T09:15:59;39.1;;;25.5;;
23252;SDS011;11795;47.054;15.408;2024-01-11T09:18:00;39.1;;;25.5;;
23252;SDS011;11795;47.054;15.408;2024-01-11T09:19:59;38.0;;;25.2;;
23252;SDS011;11795;47.054;15.408;2024-01-11T09:21:59;38.0;;;25.2;;
23252;SDS011;11795;47.054;15.408;2024-01-11T09:23:59;38.0;;;25.2;;
23252;SDS011;11795;47.054;15.408;2024-01-11T09:25:59;37.7;;;24.5;;
23252;SDS011;11795;47.054;15.408;2024-01-11T09:27:59;37.7;;;24.5;;
23252;SDS011;11795;47.054;15.408;2024-01-11T09:29:59;38.2;;;24.3;;
23252;SDS011;11795;47.054;15.408;2024-01-11T09:31:59;38.2;;;24.3;;
23252;SDS011;11795;47.054;15.408;2024-01-11T09:33:59;38.2;;;24.3;;
23252;SDS011;11795;47.054;15.408;2024-01-11T09:35:59;40.2;;;25.3;;
23252;SDS011;11795;47.054;15.408;2024-01-11T09:37:59;40.2;;;25.3;;
23252;SDS011;11795;47.054;15.408;2024-01-11T09:40:00;37.8;;;23.9;;
23252;SDS011;11795;47.054;15.408;2024-01-11T09:42:01;37.8;;;23.9;;
23252;SDS011;11795;47.054;15.408;2024-01-11T09:43:59;37.8;;;23.9;;
23252;SDS011;11795;47.054;15.408;2024-01-11T09:45:59;34.5;;;23.6;;
23252;SDS011;11795;47.054;15.408;2024-01-11T09:47:59;34.5;;;23.6;;
23252;SDS011;11795;47.054;15.408;2024-01-11T09:49:59;37.5;;;24.0;;
23252;SDS011;11795;47.054;15.408;2024-01-11T09:51:59;37.5;;;24.0;;
23252;SDS011;11795;47.054;15.408;2024-01-11T09:53:59;37.5;;;24.0;;
23252;SDS011;11795;47.054;15.408;2024-01-11T09:55:59;35.6;;;23.2;;
23252;SDS011;11795;47.054;15.408;2024-01-11T09:57:59;35.6;;;23.2;;
23252;SDS011;11795;47.054;15.408;2024-01-11T09:59:59;34.1;;;22.0;;
23252;SDS011;11795;47.054;15.408;2024-01-11T10:01:59;34.1;;;22.0;;
23252;SDS011;11795;47.054;15.408;2024-01-11T10:03:59;34.1;;;22.0;;
23252;SDS011;11795;47.054;15.408;2024-01-11T10:05:59;28.0;;;19.2;;
23252;SDS011;11795;47.054;15.408;2024-01-11T10:07:59;28.0;;;19.2;;
23252;SDS011;11795;47.054;15.408;2024-01-11T10:10:00;25.9;;;19.0;;
23252;SDS011;11795;47.054;15.408;2024-01-11T10:11:59;25.9;;;19.0;;
23252;SDS011;11795;47.054;15.408;2024-01-11T10:14:00;25.9;;;19.0;;
23252;SDS011;11795;47.054;15.408;2024-01-11T10:16:04;27.6;;;19.2;;
23252;SDS011;11795;47.054;15.408;2024-01-11T10:17:59;27.6;;;19.2;;
23252;SDS011;11795;47.054;15.408;2024-01-11T10:20:00;25.0;;;18.2;;
23252;SDS011;11795;47.054;15.408;2024-01-11T10:21:59;25.0;;;18.2;;
23252;SDS011;11795;47.054;15.408;2024-01-11T10:23:59;25.0;;;18.2;;
23252;SDS011;11795;47.054;15.408;2024-01-11T10:25:59;25.8;;;18.0;;
23252;SDS011;11795;47.054;15.408;2024-01-11T10:27:59;25.8;;;18.0;;
23252;SDS011;11795;47.054;15.408;2024-01-11T10:29:59;25.4;;;18.4;;
23252;SDS011;11795;47.054;15.408;2024-01-11T10:31:59;25.4;;;18.4;;
23252;SDS011;11795;47.054;15.408;2024-01-11T10:33:59;25.4;;;18.4;;
23252;SDS011;11795;47.054;15.408;2024-01-11T10:35:59;25.1;;;16.8;;
23252;SDS011;11795;47.054;15.408;2024-01-11T10:37:59;25.1;;;16.8;;
23252;SDS011;11795;47.054;15.408;2024-01-11T10:40:01;19.4;;;15.3;;
23252;SDS011;11795;47.054;15.408;2024-01-11T10:42:01;19.4;;;15.3;;
23252;SDS011;11795;47.054;15.408;2024-01-11T10:43:59;19.4;;;15.3;;
23252;SDS011;11795;47.054;15.408;2024-01-11T10:45:59;22.8;;;16.3;;
23252;SDS011;11795;47.054;15.408;2024-01-11T10:48:00;22.8;;;16.3;;
23252;SDS011;11795;47.054;15.408;2024-01-11T10:50:00;24.8;;;17.2;;
23252;SDS011;11795;47.054;15.408;2024-01-11T10:51:59;24.8;;;17.2;;
23252;SDS011;11795;47.054;15.408;2024-01-11T10:53:59;24.8;;;17.2;;
23252;SDS011;11795;47.054;15.408;2024-01-11T10:55:59;20.4;;;16.5;;
23252;SDS011;11795;47.054;15.408;2024-01-11T10:57:59;20.4;;;16.5;;
23252;SDS011;11795;47.054;15.408;2024-01-11T10:59:59;20.4;;;16.5;;
23252;SDS011;11795;47.054;15.408;2024-01-11T11:02:01;22.9;;;16.8;;
23252;SDS011;11795;47.054;15.408;2024-01-11T11:03:59;22.9;;;16.8;;
23252;SDS011;11795;47.054;15.408;2024-01-11T11:05:59;21.1;;;16.3;;
23252;SDS011;11795;47.054;15.408;2024-01-11T11:07:59;21.1;;;16.3;;
23252;SDS011;11795;47.054;15.408;2024-01-11T11:09:59;21.1;;;16.3;;
23252;SDS011;11795;47.054;15.408;2024-01-11T11:11:59;25.4;;;17.2;;
23252;SDS011;11795;47.054;15.408;2024-01-11T11:13:59;25.4;;;17.2;;
23252;SDS011;11795;47.054;15.408;2024-01-11T11:15:59;25.0;;;17.1;;
23252;SDS011;11795;47.054;15.408;2024-01-11T11:17:59;25.0;;;17.1;;
23252;SDS011;11795;47.054;15.408;2024-01-11T11:19:59;25.0;;;17.1;;
23252;SDS011;11795;47.054;15.408;2024-01-11T11:21:59;23.3;;;17.2;;
23252;SDS011;11795;47.054;15.408;2024-01-11T11:23:59;23.3;;;17.2;;
23252;SDS011;11795;47.054;15.408;2024-01-11T11:25:59;26.5;;;17.7;;
23252;SDS011;11795;47.054;15.408;2024-01-11T11:28:01;26.5;;;17.7;;
23252;SDS011;11795;47.054;15.408;2024-01-11T11:29:59;26.5;;;17.7;;
23252;SDS011;11795;47.054;15.408;2024-01-11T11:31:59;20.5;;;16.2;;
23252;SDS011;11795;47.054;15.408;2024-01-11T11:34:04;20.5;;;16.2;;
23252;SDS011;11795;47.054;15.408;2024-01-11T11:35:59;22.7;;;16.3;;
23252;SDS011;11795;47.054;15.408;2024-01-11T11:37:59;22.7;;;16.3;;
23252;SDS011;11795;47.054;15.408;2024-01-11T11:39:59;22.7;;;16.3;;
23252;SDS011;11795;47.054;15.408;2024-01-11T11:42:01;21.9;;;16.2;;
23252;SDS011;11795;47.054;15.408;2024-01-11T11:44:02;21.9;;;16.2;;
23252;SDS011;11795;47.054;15.408;2024-01-11T11:46:07;21.8;;;15.5;;
23252;SDS011;11795;47.054;15.408;2024-01-11T11:47:59;21.8;;;15.5;;
23252;SDS011;11795;47.054;15.408;2024-01-11T11:50:03;21.8;;;15.5;;
23252;SDS011;11795;47.054;15.408;2024-01-11T11:51:59;22.8;;;15.1;;